Lobo

Go HERE for most recent data if this page is not up to date.

Jump to table bottom
Date/Time Temp deg F RH % 24 Hr Snow (in) Snow Depth (in) H2O (in)
03/30 16:00 30.1 55 -0.1 67.0 0.00
03/30 15:00 31.1 47 0.1 67.3 0.00
03/30 14:00 29.8 51 1.0 68.0 0.00
03/30 13:00 29.3 59 1.8 68.8 0.00
03/30 12:00 28.5 57 2.8 69.5 0.00
03/30 11:00 25.0 67 3.4 70.2 0.00
03/30 10:00 23.3 81 3.5 71.1 0.00
03/30 09:00 22.9 86 3.5 69.4 0.00
03/30 08:00 21.8 90 3.5 70.5 0.01
03/30 07:00 21.8 93 3.2 69.8 0.02
03/30 06:00 21.9 93 2.7 70.0 0.01
03/30 05:00 22.3 93 2.2 69.3 0.02
03/30 04:00 22.3 93 1.7 68.8 0.01
03/30 03:00 22.5 91 1.4 68.3 0.01
03/30 02:00 22.5 91 1.1 67.8 0.01
03/30 01:00 22.3 90 0.0 67.4 0.03
03/30 00:00 22.8 92 0.2 66.7 0.00
03/29 23:00 22.9 78 0.1 66.8 0.00
03/29 22:00 22.8 74 0.0 66.8 0.00
03/29 21:00 23.9 68 0.0 66.8 0.00
03/29 20:00 25.8 58 0.0 66.7 0.00
03/29 19:00 27.1 53 -0.0 66.7 0.00
03/29 18:00 28.5 51 -0.0 66.7 0.00
03/29 17:00 28.7 54 -0.1 66.7 0.00
03/29 16:00 28.9 54 -0.2 66.7 0.00
03/29 15:00 30.3 50 -0.3 66.7 0.00
03/29 14:00 30.9 52 -0.2 67.3 0.00
03/29 13:00 26.8 54 -0.1 68.0 0.00
03/29 12:00 24.4 56 -0.0 68.1 0.00
03/29 11:00 23.1 63 -0.0 68.1 0.00
03/29 10:00 22.5 68 0.0 68.2 0.00
03/29 09:00 21.6 72 0.1 68.4 0.00
03/29 08:00 19.3 78 0.2 67.9 0.00
03/29 07:00 18.5 82 0.2 68.4 0.00
03/29 06:00 18.6 71 0.2 68.2 0.00
03/29 05:00 19.3 77 0.0 67.9 0.00
03/29 04:00 18.6 80 0.2 68.3 0.00
03/29 03:00 18.2 70 0.2 67.8 0.00
03/29 02:00 18.7 70 0.1 67.7 0.00
03/29 01:00 18.8 76 0.0 67.8 0.00
03/29 00:00 20.0 76 0.0 68.2 0.00
.